This is the latest recevied weather packets stored in our database for station/object DH0DM-13. If no packets are shown the sender has not sent any weather packets the latest 10 day(s).
| Time | Temp. | Humidity | Pressure | Rain* | Wind** | Luminosity | Snow |
|---|---|---|---|---|---|---|---|
| 1787816510 | 20.56° C | 67% | 992.4 hPa | 0 mm | 2.68 m/s, 88° | - | - |
| 1787815909 | 20.56° C | 66% | 992.3 hPa | 0 mm | 1.79 m/s, 62° | - | - |
| 1787815308 | 20° C | 68% | 992.5 hPa | 0 mm | 2.68 m/s, 53° | - | - |
| 1787814707 | 20° C | 67% | 992.7 hPa | 0 mm | 7.6 m/s, 97° | - | - |
| 1787814106 | 20° C | 68% | 992.6 hPa | 0 mm | 3.58 m/s, 80° | - | - |
| 1787813505 | 18.89° C | 71% | 992.6 hPa | 0 mm | 2.68 m/s, 39° | - | - |
| 1787812904 | 18.89° C | 72% | 992.5 hPa | 0 mm | 2.68 m/s, 123° | - | - |
| 1787812303 | 17.78° C | 75% | 992.4 hPa | 0 mm | 0.89 m/s, 71° | - | - |
| 1787811702 | 16.67° C | 77% | 992.4 hPa | 0 mm | 4.47 m/s, 64° | - | - |
| 1787811102 | 16.67° C | 78% | 992.4 hPa | 0 mm | 4.92 m/s, 90° | - | - |
| 1787810501 | 16.67° C | 79% | 992.2 hPa | 0 mm | 5.36 m/s, 117° | - | - |
| 1787809900 | 16.11° C | 80% | 992.4 hPa | 0 mm | 3.58 m/s, 63° | - | - |
| 1787809299 | 16.11° C | 80% | 992.6 hPa | 0 mm | 4.47 m/s, 94° | - | - |
| 1787808698 | 15.56° C | 81% | 992.4 hPa | 0 mm | 0.89 m/s, 93° | - | - |
| 1787808097 | 15° C | 82% | 992.4 hPa | 0 mm | 0.89 m/s, 38° | - | - |
| 1787807496 | 14.44° C | 85% | 992.5 hPa | 0 mm | 0.45 m/s, 167° | - | - |
| 1787806895 | 13.33° C | 89% | 992.7 hPa | 0 mm | 0 m/s | - | - |
| 1787806295 | 13.33° C | 89% | 992.4 hPa | 0 mm | 1.79 m/s, 105° | - | - |
| 1787805694 | 13.33° C | 89% | 992.6 hPa | 0 mm | 0.45 m/s, 77° | - | - |
| 1787805093 | 13.33° C | 89% | 992.3 hPa | 0 mm | 2.24 m/s, 72° | - | - |
| 1787804492 | 12.78° C | 91% | 992.3 hPa | 0 mm | 3.13 m/s, 64° | - | - |
| 1787803891 | 12.78° C | 91% | 992.5 hPa | 0 mm | 0 m/s | - | - |
| 1787803290 | 12.78° C | 90% | 992.3 hPa | 0 mm | 0.45 m/s, 134° | - | - |
| 1787802689 | 13.33° C | 89% | 992.2 hPa | 0 mm | 0 m/s | - | - |
| 1787802088 | 13.33° C | 89% | 992.2 hPa | 0 mm | 0 m/s | - | - |
* Rain since midnight (hover to see other rain measurements)
** Current wind speed in m/s (hover to see current wind gust speed)